createdAt,value
2018-06-28T00:02:27.302Z,42.36
2018-06-28T00:05:29.325Z,42.00
2018-06-28T00:08:31.310Z,41.73
2018-06-28T00:11:33.425Z,42.03
2018-06-28T00:14:37.520Z,42.42
2018-06-28T00:17:40.587Z,42.23
2018-06-28T00:20:42.664Z,42.25
2018-06-28T00:23:44.735Z,42.20
2018-06-28T00:26:47.872Z,42.13
2018-06-28T00:29:50.004Z,42.68
2018-06-28T00:32:53.378Z,42.53
2018-06-28T00:35:55.451Z,42.42
2018-06-28T00:38:57.560Z,42.80
2018-06-28T00:41:59.548Z,42.67
2018-06-28T00:45:04.939Z,43.59
2018-06-28T00:48:07.057Z,43.83
2018-06-28T00:51:09.105Z,44.00
2018-06-28T00:54:11.375Z,44.66
2018-06-28T00:57:13.478Z,45.37
2018-06-28T01:00:16.437Z,46.04
2018-06-28T01:03:18.397Z,46.64
2018-06-28T01:06:20.440Z,46.71
2018-06-28T01:09:22.544Z,47.73
2018-06-28T01:12:24.590Z,47.81
2018-06-28T01:15:26.692Z,47.80
2018-06-28T01:18:28.735Z,47.86
2018-06-28T01:21:30.970Z,47.76
2018-06-28T01:24:33.052Z,48.39
2018-06-28T01:27:35.134Z,48.71
2018-06-28T01:30:37.225Z,49.72
2018-06-28T01:33:39.305Z,50.12
2018-06-28T01:36:41.512Z,49.66
2018-06-28T01:39:43.640Z,49.64
2018-06-28T01:42:57.963Z,49.68
2018-06-28T01:46:00.118Z,48.19
2018-06-28T01:49:02.244Z,48.60
2018-06-28T01:52:04.502Z,49.10
2018-06-28T01:55:06.476Z,49.57
2018-06-28T01:58:08.556Z,49.73
2018-06-28T02:01:10.613Z,49.60
2018-06-28T02:04:12.776Z,48.53
2018-06-28T02:07:14.875Z,49.58
2018-06-28T02:10:18.164Z,49.39
2018-06-28T02:13:20.433Z,50.08
2018-06-28T02:16:22.636Z,50.24
2018-06-28T02:19:25.675Z,50.00
2018-06-28T02:22:27.768Z,50.90
2018-06-28T02:25:29.725Z,49.76
2018-06-28T02:28:31.779Z,51.42
2018-06-28T02:31:34.908Z,51.53
2018-06-28T02:34:36.973Z,51.13
2018-06-28T02:37:40.108Z,51.78
2018-06-28T02:40:42.241Z,52.26
2018-06-28T02:43:44.304Z,53.00
2018-06-28T02:46:46.589Z,53.59
2018-06-28T02:49:48.624Z,53.39
2018-06-28T02:52:50.694Z,53.55
2018-06-28T02:55:52.647Z,53.65
2018-06-28T02:58:54.903Z,54.08
2018-06-28T03:01:57.135Z,53.19
2018-06-28T03:05:02.815Z,53.95
2018-06-28T03:08:05.366Z,53.09
2018-06-28T03:11:07.328Z,54.20
2018-06-28T03:14:09.540Z,54.32
2018-06-28T03:17:11.667Z,54.82
2018-06-28T03:20:13.761Z,54.88
2018-06-28T03:23:15.791Z,54.48
2018-06-28T03:26:17.904Z,55.39
2018-06-28T03:29:19.920Z,55.52
2018-06-28T03:32:22.077Z,55.41
2018-06-28T03:35:24.187Z,54.70
2018-06-28T03:38:26.237Z,55.19
2018-06-28T03:41:28.228Z,55.29
2018-06-28T03:44:30.445Z,55.30
2018-06-28T03:47:32.582Z,55.39
2018-06-28T03:50:34.659Z,55.38
2018-06-28T03:53:36.695Z,55.58
2018-06-28T03:56:38.659Z,55.54
2018-06-28T03:59:40.723Z,55.62
2018-06-28T04:02:42.900Z,55.82
2018-06-28T04:05:44.863Z,55.19
2018-06-28T04:08:46.924Z,55.39
2018-06-28T04:11:49.612Z,56.03
2018-06-28T04:14:51.696Z,56.00
2018-06-28T04:17:53.815Z,55.79
2018-06-28T04:20:55.946Z,56.44
2018-06-28T04:23:58.043Z,55.29
2018-06-28T04:27:00.353Z,56.75
2018-06-28T04:30:02.622Z,56.95
2018-06-28T04:33:04.739Z,56.69
2018-06-28T04:36:06.905Z,56.05
2018-06-28T04:39:10.635Z,55.78
2018-06-28T04:42:12.806Z,55.53
2018-06-28T04:45:14.848Z,55.76
2018-06-28T04:48:17.017Z,55.41
2018-06-28T04:51:20.608Z,56.16
2018-06-28T04:54:34.772Z,56.13
2018-06-28T04:57:36.839Z,56.08
2018-06-28T05:00:39.563Z,55.31
2018-06-28T05:03:41.804Z,55.40
2018-06-28T05:06:43.831Z,54.11
2018-06-28T05:09:45.921Z,53.74
2018-06-28T05:12:49.175Z,54.40
2018-06-28T05:15:51.209Z,53.85
2018-06-28T05:18:53.687Z,53.23
2018-06-28T05:21:55.743Z,53.98
2018-06-28T05:24:57.981Z,53.76
2018-06-28T05:28:00.121Z,53.56
2018-06-28T05:31:02.349Z,53.40
2018-06-28T05:34:04.520Z,52.84
2018-06-28T05:37:06.634Z,52.05
2018-06-28T05:40:08.643Z,52.34
2018-06-28T05:43:10.755Z,51.99
2018-06-28T05:46:13.013Z,51.58
2018-06-28T05:49:16.106Z,51.07
2018-06-28T05:52:18.752Z,50.99
2018-06-28T05:55:20.837Z,50.76
2018-06-28T05:58:22.794Z,50.11
2018-06-28T06:01:24.863Z,49.67
2018-06-28T06:04:27.011Z,49.42
2018-06-28T06:07:29.015Z,49.52
2018-06-28T06:10:31.157Z,49.26
2018-06-28T06:13:33.468Z,49.07
2018-06-28T06:16:36.222Z,48.74
2018-06-28T06:19:38.402Z,48.55
2018-06-28T06:22:41.696Z,47.90
2018-06-28T06:25:43.909Z,47.99
2018-06-28T06:28:46.048Z,48.37
2018-06-28T06:31:49.288Z,47.91
2018-06-28T06:34:51.373Z,47.67
2018-06-28T06:37:53.560Z,47.35
2018-06-28T06:40:55.739Z,47.02
2018-06-28T06:43:58.834Z,46.80
2018-06-28T06:47:01.025Z,46.37
2018-06-28T06:50:03.315Z,46.27
2018-06-28T06:53:05.316Z,46.33
2018-06-28T06:56:07.572Z,46.03
2018-06-28T06:59:09.732Z,45.81
2018-06-28T07:02:11.907Z,45.87
2018-06-28T07:05:14.103Z,45.99
2018-06-28T07:08:16.308Z,45.76
2018-06-28T07:11:19.717Z,45.75
2018-06-28T07:14:21.708Z,45.92
2018-06-28T07:17:23.664Z,45.87
2018-06-28T07:20:25.708Z,45.71
2018-06-28T07:23:27.743Z,45.61
2018-06-28T07:26:29.796Z,45.14
2018-06-28T07:29:31.871Z,45.12
2018-06-28T07:32:35.984Z,45.35
2018-06-28T07:35:38.088Z,45.07
2018-06-28T07:38:40.080Z,44.75
2018-06-28T07:41:42.237Z,44.16
2018-06-28T07:44:44.439Z,44.27
2018-06-28T07:47:46.455Z,44.06
2018-06-28T07:50:49.758Z,43.91
2018-06-28T07:53:51.731Z,43.42
2018-06-28T07:56:53.883Z,44.10
2018-06-28T07:59:55.943Z,43.53
2018-06-28T08:02:58.079Z,43.06
2018-06-28T08:06:00.051Z,42.60
2018-06-28T08:09:02.173Z,43.23
2018-06-28T08:12:06.300Z,42.94
2018-06-28T08:15:08.434Z,42.92
2018-06-28T08:18:10.649Z,43.81
2018-06-28T08:21:12.818Z,42.29
2018-06-28T08:24:14.836Z,42.41
2018-06-28T08:27:16.895Z,41.56
2018-06-28T08:30:20.148Z,42.60
2018-06-28T08:33:22.534Z,41.66
2018-06-28T08:36:24.556Z,42.11
2018-06-28T08:39:26.651Z,42.17
2018-06-28T08:42:28.776Z,41.16
2018-06-28T08:45:30.735Z,41.90
2018-06-28T08:48:32.712Z,42.03
2018-06-28T08:51:34.807Z,41.91
2018-06-28T08:54:37.928Z,41.71
2018-06-28T08:57:39.984Z,42.24
2018-06-28T09:00:42.024Z,42.05
2018-06-28T09:03:44.325Z,42.46
2018-06-28T09:06:46.384Z,42.54
2018-06-28T09:09:49.547Z,42.28
2018-06-28T09:12:51.645Z,41.33
2018-06-28T09:15:55.905Z,41.93
2018-06-28T09:18:58.064Z,41.58
2018-06-28T09:22:00.275Z,41.58
2018-06-28T09:25:02.380Z,42.39
2018-06-28T09:28:05.576Z,41.86
2018-06-28T09:31:07.630Z,41.86
2018-06-28T09:34:09.563Z,41.73
2018-06-28T09:37:11.667Z,41.39
2018-06-28T09:40:13.720Z,40.16
2018-06-28T09:43:16.835Z,39.70
2018-06-28T09:46:20.126Z,39.72
2018-06-28T09:49:23.340Z,39.28
2018-06-28T09:52:25.525Z,36.32
2018-06-28T09:55:28.083Z,36.47
2018-06-28T09:58:30.056Z,37.35
2018-06-28T10:01:32.250Z,36.54
2018-06-28T10:04:34.311Z,37.03
2018-06-28T10:07:37.380Z,36.92
2018-06-28T10:10:39.694Z,36.42
2018-06-28T10:13:41.756Z,36.25
2018-06-28T10:16:44.912Z,35.70
2018-06-28T10:19:46.983Z,35.08
2018-06-28T10:22:49.935Z,34.52
2018-06-28T10:25:52.140Z,34.20
2018-06-28T10:28:54.323Z,33.40
2018-06-28T10:31:56.391Z,32.98
2018-06-28T10:34:58.448Z,33.12
2018-06-28T10:38:00.503Z,34.09
2018-06-28T10:41:02.555Z,34.20
2018-06-28T10:44:04.634Z,34.16
2018-06-28T10:47:07.292Z,34.56
2018-06-28T10:50:09.673Z,34.32
2018-06-28T10:53:11.687Z,33.85
2018-06-28T10:56:13.735Z,33.14
2018-06-28T10:59:15.817Z,33.28
2018-06-28T11:02:17.984Z,33.75
2018-06-28T11:05:21.548Z,34.24
2018-06-28T11:08:23.568Z,34.38
2018-06-28T11:11:25.725Z,34.62
2018-06-28T11:14:28.000Z,33.97
2018-06-28T11:17:30.096Z,33.51
2018-06-28T11:20:32.263Z,33.58
2018-06-28T11:23:34.279Z,33.68
2018-06-28T11:26:36.440Z,34.10
2018-06-28T11:29:38.681Z,34.83
2018-06-28T11:32:40.848Z,35.19
2018-06-28T11:35:42.912Z,35.32
2018-06-28T11:38:44.923Z,34.71
2018-06-28T11:41:47.143Z,34.48
2018-06-28T11:44:49.281Z,33.76
2018-06-28T11:47:51.422Z,34.48
2018-06-28T11:50:53.416Z,35.02
2018-06-28T11:53:55.387Z,34.70
2018-06-28T11:56:57.537Z,35.08
2018-06-28T11:59:59.663Z,35.30
2018-06-28T12:03:02.499Z,35.44
2018-06-28T12:06:05.779Z,35.39
2018-06-28T12:09:09.649Z,35.88
2018-06-28T12:12:11.731Z,35.78
2018-06-28T12:15:13.845Z,35.88
2018-06-28T12:18:16.020Z,36.26
2018-06-28T12:21:18.124Z,35.97
2018-06-28T12:24:20.353Z,36.36
2018-06-28T12:27:22.535Z,36.49
2018-06-28T12:30:24.717Z,36.77
2018-06-28T12:33:26.784Z,36.80
2018-06-28T12:36:28.867Z,37.29
2018-06-28T12:39:30.999Z,37.46
2018-06-28T12:42:33.240Z,37.52
2018-06-28T12:45:36.531Z,37.43
2018-06-28T12:48:38.688Z,38.07
2018-06-28T12:51:52.438Z,38.04
2018-06-28T12:54:54.635Z,38.17
2018-06-28T12:57:57.762Z,38.18
2018-06-28T13:00:59.876Z,38.42
2018-06-28T13:04:01.912Z,38.29
2018-06-28T13:07:04.038Z,38.29
2018-06-28T13:10:07.572Z,38.02
2018-06-28T13:13:09.690Z,37.78
2018-06-28T13:16:13.291Z,37.34
2018-06-28T13:19:15.303Z,37.82
2018-06-28T13:22:17.433Z,37.95
2018-06-28T13:25:19.461Z,37.15
2018-06-28T13:28:22.590Z,36.13
2018-06-28T13:31:25.722Z,35.59
2018-06-28T13:34:28.884Z,35.21
2018-06-28T13:37:32.155Z,35.73
2018-06-28T13:40:35.204Z,34.46
2018-06-28T13:43:39.071Z,34.46
2018-06-28T13:46:42.316Z,34.97
2018-06-28T13:49:45.544Z,35.22
2018-06-28T13:52:48.705Z,35.51
2018-06-28T13:55:51.904Z,35.62
2018-06-28T13:58:55.134Z,36.03
2018-06-28T14:01:59.579Z,35.95
2018-06-28T14:05:01.752Z,36.05
2018-06-28T14:08:03.893Z,35.88
2018-06-28T14:11:06.068Z,36.12
2018-06-28T14:14:08.964Z,36.55
2018-06-28T14:17:11.111Z,36.68
2018-06-28T14:20:13.328Z,36.33
2018-06-28T14:23:15.538Z,36.46
2018-06-28T14:26:17.532Z,36.14
2018-06-28T14:29:19.647Z,35.77
2018-06-28T14:32:21.751Z,35.16
2018-06-28T14:35:23.974Z,35.03
2018-06-28T14:38:26.491Z,34.79
2018-06-28T14:41:28.626Z,35.37
2018-06-28T14:44:30.712Z,35.27
2018-06-28T14:47:32.808Z,35.46
2018-06-28T14:50:34.927Z,35.46
2018-06-28T14:53:38.881Z,36.84
2018-06-28T14:56:40.930Z,37.09
2018-06-28T14:59:43.101Z,35.54
2018-06-28T15:02:45.352Z,34.08
2018-06-28T15:05:47.768Z,34.30
2018-06-28T15:08:49.772Z,34.59
2018-06-28T15:11:51.924Z,34.32
2018-06-28T15:14:55.094Z,34.20
2018-06-28T15:17:57.142Z,34.42
2018-06-28T15:20:59.191Z,35.04
2018-06-28T15:24:01.333Z,34.45
2018-06-28T15:27:03.368Z,34.54
2018-06-28T15:30:07.447Z,34.75
2018-06-28T15:33:09.495Z,34.57
2018-06-28T15:36:11.480Z,34.70
2018-06-28T15:39:13.675Z,34.74
2018-06-28T15:42:26.028Z,35.06
2018-06-28T15:45:28.074Z,35.34
2018-06-28T15:48:31.332Z,34.46
2018-06-28T15:51:33.333Z,34.30
2018-06-28T15:54:35.374Z,33.27
2018-06-28T15:57:37.875Z,33.46
2018-06-28T16:00:39.843Z,33.62
2018-06-28T16:03:41.923Z,34.28
2018-06-28T16:06:44.070Z,33.64
2018-06-28T16:09:46.090Z,33.32
2018-06-28T16:12:53.934Z,33.53
2018-06-28T16:15:56.002Z,34.18
2018-06-28T16:18:58.186Z,34.52
2018-06-28T16:22:00.122Z,34.15
2018-06-28T16:25:02.285Z,34.59
2018-06-28T16:28:04.419Z,34.21
2018-06-28T16:31:06.524Z,34.46
2018-06-28T16:34:08.904Z,34.81
2018-06-28T16:37:11.026Z,35.00
2018-06-28T16:40:13.211Z,35.25
2018-06-28T16:43:15.834Z,35.56
2018-06-28T16:46:17.991Z,35.54
2018-06-28T16:49:20.095Z,35.95
2018-06-28T16:52:22.193Z,36.20
2018-06-28T16:55:24.392Z,36.15
2018-06-28T16:58:26.560Z,36.43
2018-06-28T17:01:30.781Z,36.47
2018-06-28T17:04:33.839Z,36.83
2018-06-28T17:07:36.067Z,37.11
2018-06-28T17:10:39.086Z,37.17
2018-06-28T17:13:41.143Z,38.03
2018-06-28T17:16:43.237Z,39.43
2018-06-28T17:19:45.257Z,39.78
2018-06-28T17:22:47.369Z,40.15
2018-06-28T17:25:49.620Z,40.63
2018-06-28T17:28:51.813Z,41.09
2018-06-28T17:31:53.951Z,41.50
2018-06-28T17:34:55.940Z,42.20
2018-06-28T17:37:57.984Z,42.58
2018-06-28T17:40:59.987Z,43.03
2018-06-28T17:44:02.051Z,43.45
2018-06-28T17:47:04.234Z,44.36
2018-06-28T17:50:07.419Z,45.28
2018-06-28T17:53:09.634Z,45.98
2018-06-28T17:56:11.803Z,47.00
2018-06-28T17:59:15.439Z,47.50
2018-06-28T18:02:17.765Z,48.01
2018-06-28T18:05:19.911Z,48.75
2018-06-28T18:08:22.103Z,49.05
2018-06-28T18:11:24.224Z,49.60
2018-06-28T18:14:26.440Z,49.28
2018-06-28T18:17:28.522Z,49.54
2018-06-28T18:20:30.712Z,49.72
2018-06-28T18:23:32.896Z,49.91
2018-06-28T18:26:35.000Z,50.21
2018-06-28T18:29:38.197Z,50.54
2018-06-28T18:32:40.457Z,51.21
2018-06-28T18:35:42.585Z,51.35
2018-06-28T18:38:44.807Z,51.67
2018-06-28T18:41:46.882Z,51.81
2018-06-28T18:44:48.864Z,51.73
2018-06-28T18:47:50.984Z,51.76
2018-06-28T18:50:53.186Z,51.72
2018-06-28T18:53:56.399Z,51.71
2018-06-28T18:56:58.494Z,51.53
2018-06-28T19:00:00.873Z,51.78
2018-06-28T19:03:03.023Z,52.29
2018-06-28T19:06:05.064Z,52.35
2018-06-28T19:09:11.304Z,52.92
2018-06-28T19:12:13.385Z,52.48
2018-06-28T19:15:21.339Z,51.97
2018-06-28T19:18:23.729Z,52.61
2018-06-28T19:21:31.570Z,52.53
2018-06-28T19:24:33.755Z,52.09
2018-06-28T19:27:35.842Z,53.01
2018-06-28T19:30:44.652Z,53.35
2018-06-28T19:33:49.130Z,52.94
2018-06-28T19:36:51.364Z,53.06
2018-06-28T19:40:00.292Z,53.04
2018-06-28T19:43:05.036Z,53.41
2018-06-28T19:46:07.898Z,53.32
2018-06-28T19:49:15.711Z,53.37
2018-06-28T19:52:23.556Z,53.87
2018-06-28T19:55:28.874Z,54.49
2018-06-28T19:58:31.022Z,55.11
2018-06-28T20:01:38.893Z,54.99
2018-06-28T20:04:44.120Z,54.69
2018-06-28T20:07:46.266Z,54.68
2018-06-28T20:10:48.438Z,55.08
2018-06-28T20:13:56.276Z,55.73
2018-06-28T20:17:04.251Z,55.73
2018-06-28T20:20:12.419Z,55.87
2018-06-28T20:23:14.428Z,56.29
2018-06-28T20:26:22.416Z,56.57
2018-06-28T20:29:30.439Z,56.97
2018-06-28T20:32:38.308Z,57.29
2018-06-28T20:35:40.485Z,57.28
2018-06-28T20:38:42.602Z,56.81
2018-06-28T20:41:44.817Z,57.31
2018-06-28T20:44:46.932Z,58.45
2018-06-28T20:47:48.993Z,58.77
2018-06-28T20:50:51.102Z,57.89
2018-06-28T20:53:53.291Z,59.36
2018-06-28T20:56:55.355Z,59.67
2018-06-28T20:59:57.486Z,59.82
2018-06-28T21:02:59.456Z,59.87
2018-06-28T21:06:01.612Z,60.25
2018-06-28T21:09:06.084Z,60.21
2018-06-28T21:12:09.251Z,59.92
2018-06-28T21:15:12.447Z,60.93
2018-06-28T21:18:14.604Z,61.26
2018-06-28T21:21:16.729Z,61.23
2018-06-28T21:24:18.737Z,60.93
2018-06-28T21:27:20.962Z,60.18
2018-06-28T21:30:23.074Z,61.61
2018-06-28T21:33:25.419Z,61.70
2018-06-28T21:36:27.511Z,61.36
2018-06-28T21:39:29.572Z,61.36
2018-06-28T21:42:31.571Z,60.91
2018-06-28T21:45:33.545Z,61.37
2018-06-28T21:48:35.596Z,60.93
2018-06-28T21:51:37.821Z,60.87
2018-06-28T21:54:39.800Z,61.61
2018-06-28T21:57:41.904Z,62.40
2018-06-28T22:00:44.106Z,63.36
2018-06-28T22:03:46.183Z,63.48
2018-06-28T22:06:50.815Z,62.61
2018-06-28T22:09:52.952Z,62.74
2018-06-28T22:12:55.491Z,62.57
2018-06-28T22:15:57.488Z,62.54
2018-06-28T22:18:59.939Z,62.57
2018-06-28T22:22:02.104Z,61.34
2018-06-28T22:25:04.151Z,62.16
2018-06-28T22:28:06.352Z,61.93
2018-06-28T22:31:08.672Z,61.66
2018-06-28T22:34:10.990Z,61.57
2018-06-28T22:37:13.139Z,60.54
2018-06-28T22:40:15.428Z,61.03
2018-06-28T22:43:17.550Z,61.69
2018-06-28T22:46:19.524Z,61.61
2018-06-28T22:49:21.578Z,61.72
2018-06-28T22:52:23.672Z,63.17
2018-06-28T22:55:25.707Z,63.65
2018-06-28T22:58:27.776Z,63.47
2018-06-28T23:01:29.860Z,62.81
2018-06-28T23:04:32.154Z,62.00
2018-06-28T23:07:35.327Z,63.42
2018-06-28T23:10:37.397Z,63.42
2018-06-28T23:13:39.482Z,65.05
2018-06-28T23:16:41.613Z,65.26
2018-06-28T23:19:43.716Z,64.94
2018-06-28T23:22:48.140Z,63.65
2018-06-28T23:25:50.705Z,63.47
2018-06-28T23:28:53.224Z,63.28
2018-06-28T23:31:55.703Z,63.44
2018-06-28T23:34:58.184Z,64.08
2018-06-28T23:38:01.326Z,63.04
2018-06-28T23:41:03.610Z,63.82
2018-06-28T23:44:06.698Z,64.32
2018-06-28T23:47:09.793Z,64.62
2018-06-28T23:50:11.875Z,65.19
2018-06-28T23:53:13.830Z,65.43
2018-06-28T23:56:15.899Z,65.41
2018-06-28T23:59:18.177Z,65.26
